sensor_id;sensor_type;location;lat;lon;timestamp;pressure;altitude;pressure_sealevel;temperature;humidity
3590;BME280;1809;48.470;9.226;2023-04-22T00:02:19;-16226.66;;;13.61;100.00
3590;BME280;1809;48.470;9.226;2023-04-22T00:04:47;-16550.28;;;13.69;100.00
3590;BME280;1809;48.470;9.226;2023-04-22T00:07:14;-16550.69;;;13.70;100.00
3590;BME280;1809;48.470;9.226;2023-04-22T00:09:40;-16551.81;;;13.74;100.00
3590;BME280;1809;48.470;9.226;2023-04-22T00:12:07;-16552.66;;;13.77;100.00
3590;BME280;1809;48.470;9.226;2023-04-22T00:14:33;-16556.31;;;13.90;100.00
3590;BME280;1809;48.470;9.226;2023-04-22T00:16:59;-16556.88;;;13.92;100.00
3590;BME280;1809;48.470;9.226;2023-04-22T00:19:24;-16555.47;;;13.87;100.00
3590;BME280;1809;48.470;9.226;2023-04-22T00:21:49;-16553.50;;;13.80;100.00
3590;BME280;1809;48.470;9.226;2023-04-22T00:24:15;-16555.63;;;13.88;100.00
3590;BME280;1809;48.470;9.226;2023-04-22T00:26:40;-16552.38;;;13.76;100.00
3590;BME280;1809;48.470;9.226;2023-04-22T00:29:05;-5557.63;;;13.51;100.00
3590;BME280;1809;48.470;9.226;2023-04-22T00:31:31;16869.84;;;13.44;100.00
3590;BME280;1809;48.470;9.226;2023-04-22T00:33:56;20567.75;;;13.48;100.00
3590;BME280;1809;48.470;9.226;2023-04-22T00:36:21;27632.25;;;13.38;100.00
3590;BME280;1809;48.470;9.226;2023-04-22T00:38:48;32684.44;;;13.27;100.00
3590;BME280;1809;48.470;9.226;2023-04-22T00:41:15;38426.28;;;13.30;100.00
3590;BME280;1809;48.470;9.226;2023-04-22T00:43:41;42480.25;;;13.24;100.00
3590;BME280;1809;48.470;9.226;2023-04-22T00:46:06;41468.38;;;13.28;100.00
3590;BME280;1809;48.470;9.226;2023-04-22T00:48:32;43838.84;;;13.31;100.00
3590;BME280;1809;48.470;9.226;2023-04-22T00:50:58;47224.19;;;13.29;100.00
3590;BME280;1809;48.470;9.226;2023-04-22T00:53:23;54680.88;;;13.22;100.00
3590;BME280;1809;48.470;9.226;2023-04-22T00:55:49;55358.72;;;13.20;100.00
3590;BME280;1809;48.470;9.226;2023-04-22T00:58:15;52298.06;;;13.14;100.00
3590;BME280;1809;48.470;9.226;2023-04-22T01:00:41;55683.47;;;13.04;100.00
3590;BME280;1809;48.470;9.226;2023-04-22T01:03:07;60770.28;;;12.93;100.00
3590;BME280;1809;48.470;9.226;2023-04-22T01:05:34;61782.97;;;12.85;100.00
3590;BME280;1809;48.470;9.226;2023-04-22T01:08:00;58722.78;;;12.84;100.00
3590;BME280;1809;48.470;9.226;2023-04-22T01:10:26;62125.06;;;12.87;100.00
3590;BME280;1809;48.470;9.226;2023-04-22T01:12:51;60757.97;;;12.80;100.00
3590;BME280;1809;48.470;9.226;2023-04-22T01:15:17;63127.63;;;12.70;100.00
3590;BME280;1809;48.470;9.226;2023-04-22T01:17:44;67548.19;;;12.66;100.00
3590;BME280;1809;48.470;9.226;2023-04-22T01:20:10;61087.53;;;12.70;100.00
3590;BME280;1809;48.470;9.226;2023-04-22T01:22:40;65161.00;;;12.62;100.00
3590;BME280;1809;48.470;9.226;2023-04-22T01:25:07;58365.53;;;12.66;100.00
3590;BME280;1809;48.470;9.226;2023-04-22T01:27:33;63113.78;;;12.56;100.00
3590;BME280;1809;48.470;9.226;2023-04-22T01:29:59;69233.84;;;12.51;100.00
3590;BME280;1809;48.470;9.226;2023-04-22T01:32:24;72979.16;;;12.48;100.00
3590;BME280;1809;48.470;9.226;2023-04-22T01:34:50;75021.97;;;12.45;100.00
3590;BME280;1809;48.470;9.226;2023-04-22T01:37:16;75701.28;;;12.42;100.00
3590;BME280;1809;48.470;9.226;2023-04-22T01:39:42;80816.75;;;12.37;100.00
3590;BME280;1809;48.470;9.226;2023-04-22T01:42:07;83903.00;;;12.44;100.00
3590;BME280;1809;48.470;9.226;2023-04-22T01:44:33;81506.88;;;12.42;100.00
3590;BME280;1809;48.470;9.226;2023-04-22T01:46:59;70236.97;;;12.34;100.00
3590;BME280;1809;48.470;9.226;2023-04-22T01:49:24;57978.44;;;12.15;100.00
3590;BME280;1809;48.470;9.226;2023-04-22T01:51:49;52892.75;;;12.15;100.00
3590;BME280;1809;48.470;9.226;2023-04-22T01:54:15;52533.16;;;11.90;100.00
3590;BME280;1809;48.470;9.226;2023-04-22T01:56:40;58296.97;;;11.93;100.00
3590;BME280;1809;48.470;9.226;2023-04-22T01:59:08;61349.25;;;11.91;100.00
3590;BME280;1809;48.470;9.226;2023-04-22T02:01:33;67115.91;;;11.81;100.00
3590;BME280;1809;48.470;9.226;2023-04-22T02:03:59;66760.69;;;11.67;100.00
3590;BME280;1809;48.470;9.226;2023-04-22T02:06:24;70498.38;;;11.64;100.00
3590;BME280;1809;48.470;9.226;2023-04-22T02:08:50;71856.19;;;11.61;100.00
3590;BME280;1809;48.470;9.226;2023-04-22T02:11:15;73218.03;;;11.61;100.00
3590;BME280;1809;48.470;9.226;2023-04-22T02:13:40;74222.81;;;11.47;100.00
3590;BME280;1809;48.470;9.226;2023-04-22T02:16:06;80688.81;;;11.39;100.00
3590;BME280;1809;48.470;9.226;2023-04-22T02:18:32;83413.59;;;11.35;100.00
3590;BME280;1809;48.470;9.226;2023-04-22T02:20:58;87159.59;;;11.27;100.00
3590;BME280;1809;48.470;9.226;2023-04-22T02:23:23;90229.78;;;11.22;100.00
3590;BME280;1809;48.470;9.226;2023-04-22T02:25:50;90217.22;;;11.14;100.00
3590;BME280;1809;48.470;9.226;2023-04-22T02:28:16;93616.91;;;11.00;100.00
3590;BME280;1809;48.470;9.226;2023-04-22T02:30:41;98406.28;;;10.97;100.00
3590;BME280;1809;48.470;9.226;2023-04-22T02:33:07;100103.56;;;10.87;100.00
3590;BME280;1809;48.470;9.226;2023-04-22T02:35:32;101807.84;;;10.80;100.00
3590;BME280;1809;48.470;9.226;2023-04-22T02:37:57;104547.03;;;10.77;100.00
3590;BME280;1809;48.470;9.226;2023-04-22T02:40:23;106956.16;;;10.81;100.00
3590;BME280;1809;48.470;9.226;2023-04-22T02:42:48;108320.31;;;10.75;100.00
3590;BME280;1809;48.470;9.226;2023-04-22T02:45:14;110041.94;;;10.77;100.00
3590;BME280;1809;48.470;9.226;2023-04-22T02:47:39;108313.16;;;10.71;100.00
3590;BME280;1809;48.470;9.226;2023-04-22T02:50:05;108653.13;;;10.69;100.00
3590;BME280;1809;48.470;9.226;2023-04-22T02:52:32;107955.50;;;10.63;100.00
3590;BME280;1809;48.470;9.226;2023-04-22T02:54:57;107245.78;;;10.50;100.00
3590;BME280;1809;48.470;9.226;2023-04-22T02:57:23;107919.97;;;10.43;100.00
3590;BME280;1809;48.470;9.226;2023-04-22T02:59:48;108578.06;;;10.27;100.00
3590;BME280;1809;48.470;9.226;2023-04-22T03:02:13;110632.88;;;10.24;100.00
3590;BME280;1809;48.470;9.226;2023-04-22T03:04:39;111988.53;;;10.14;100.00
3590;BME280;1809;48.470;9.226;2023-04-22T03:07:05;114376.19;;;10.04;100.00
3590;BME280;1809;48.470;9.226;2023-04-22T03:09:30;117810.25;;;10.02;100.00
3590;BME280;1809;48.470;9.226;2023-04-22T03:11:56;119859.25;;;9.94;100.00
3590;BME280;1809;48.470;9.226;2023-04-22T03:14:21;123300.91;;;9.93;100.00
3590;BME280;1809;48.470;9.226;2023-04-22T03:16:46;125009.50;;;9.86;100.00
3590;BME280;1809;48.470;9.226;2023-04-22T03:19:12;126386.31;;;9.85;100.00
3590;BME280;1809;48.470;9.226;2023-04-22T03:21:37;126718.56;;;9.79;100.00
3590;BME280;1809;48.470;9.226;2023-04-22T03:24:02;127049.69;;;9.72;100.00
3590;BME280;1809;48.470;9.226;2023-04-22T03:26:28;127381.88;;;9.66;100.00
3590;BME280;1809;48.470;9.226;2023-04-22T03:28:53;128762.31;;;9.66;100.00
3590;BME280;1809;48.470;9.226;2023-04-22T03:31:18;130491.63;;;9.68;100.00
3590;BME280;1809;48.470;9.226;2023-04-22T03:33:44;131181.88;;;9.68;100.00
3590;BME280;1809;48.470;9.226;2023-04-22T03:36:09;132215.38;;;9.67;100.00
3590;BME280;1809;48.470;9.226;2023-04-22T03:38:34;132549.66;;;9.62;100.00
3590;BME280;1809;48.470;9.226;2023-04-22T03:41:00;133242.47;;;9.63;100.00
3590;BME280;1809;48.470;9.226;2023-04-22T03:43:25;134298.63;;;9.72;100.00
3590;BME280;1809;48.470;9.226;2023-04-22T03:45:50;135010.91;;;9.82;100.00
3590;BME280;1809;48.470;9.226;2023-04-22T03:48:16;133968.66;;;9.80;100.00
3590;BME280;1809;48.470;9.226;2023-04-22T03:50:41;133956.50;;;9.74;100.00
3590;BME280;1809;48.470;9.226;2023-04-22T03:53:06;133306.44;;;9.93;100.00
3590;BME280;1809;48.470;9.226;2023-04-22T03:55:32;130191.78;;;9.90;100.00
3590;BME280;1809;48.470;9.226;2023-04-22T03:57:57;128464.13;;;9.89;100.00
3590;BME280;1809;48.470;9.226;2023-04-22T04:00:23;126055.09;;;9.91;100.00
3590;BME280;1809;48.470;9.226;2023-04-22T04:02:48;123965.47;;;9.81;100.00
3590;BME280;1809;48.470;9.226;2023-04-22T04:05:14;123264.25;;;9.74;100.00
3590;BME280;1809;48.470;9.226;2023-04-22T04:07:39;123256.13;;;9.70;100.00
3590;BME280;1809;48.470;9.226;2023-04-22T04:10:05;123957.28;;;9.77;100.00
3590;BME280;1809;48.470;9.226;2023-04-22T04:12:31;123252.03;;;9.68;100.00
3590;BME280;1809;48.470;9.226;2023-04-22T04:14:56;124287.41;;;9.69;100.00
3590;BME280;1809;48.470;9.226;2023-04-22T04:17:22;124966.16;;;9.64;100.00
3590;BME280;1809;48.470;9.226;2023-04-22T04:19:53;126347.69;;;9.66;100.00
3590;BME280;1809;48.470;9.226;2023-04-22T04:22:19;126693.44;;;9.66;100.00
3590;BME280;1809;48.470;9.226;2023-04-22T04:24:45;127386.09;;;9.68;100.00
3590;BME280;1809;48.470;9.226;2023-04-22T04:27:11;128070.41;;;9.65;100.00
3590;BME280;1809;48.470;9.226;2023-04-22T04:29:37;128403.63;;;9.60;100.00
3590;BME280;1809;48.470;9.226;2023-04-22T04:32:03;128736.78;;;9.54;100.00
3590;BME280;1809;48.470;9.226;2023-04-22T04:34:29;129424.38;;;9.53;100.00
3590;BME280;1809;48.470;9.226;2023-04-22T04:36:55;130456.03;;;9.52;100.00
3590;BME280;1809;48.470;9.226;2023-04-22T04:39:22;131147.19;;;9.52;100.00
3590;BME280;1809;48.470;9.226;2023-04-22T04:41:48;131487.91;;;9.50;100.00
3590;BME280;1809;48.470;9.226;2023-04-22T04:44:13;131852.66;;;9.59;100.00
3590;BME280;1809;48.470;9.226;2023-04-22T04:46:40;131852.66;;;9.59;100.00
3590;BME280;1809;48.470;9.226;2023-04-22T04:49:06;132198.94;;;9.60;100.00
3590;BME280;1809;48.470;9.226;2023-04-22T04:51:33;132221.94;;;9.70;100.00
3590;BME280;1809;48.470;9.226;2023-04-22T04:53:59;131201.41;;;9.78;100.00
3590;BME280;1809;48.470;9.226;2023-04-22T04:56:24;130148.72;;;9.69;100.00
3590;BME280;1809;48.470;9.226;2023-04-22T04:58:49;129814.38;;;9.74;100.00
3590;BME280;1809;48.470;9.226;2023-04-22T05:01:15;129469.31;;;9.74;100.00
3590;BME280;1809;48.470;9.226;2023-04-22T05:03:40;129135.03;;;9.80;100.00
3590;BME280;1809;48.470;9.226;2023-04-22T05:06:06;129157.41;;;9.90;100.00
3590;BME280;1809;48.470;9.226;2023-04-22T05:08:31;128464.13;;;9.89;100.00
3590;BME280;1809;48.470;9.226;2023-04-22T05:10:56;127786.84;;;9.95;100.00
3590;BME280;1809;48.470;9.226;2023-04-22T05:13:22;127446.09;;;9.97;100.00
3590;BME280;1809;48.470;9.226;2023-04-22T05:15:47;126771.97;;;10.04;100.00
3590;BME280;1809;48.470;9.226;2023-04-22T05:18:13;125750.81;;;10.11;100.00
3590;BME280;1809;48.470;9.226;2023-04-22T05:20:38;124040.25;;;10.17;100.00
3590;BME280;1809;48.470;9.226;2023-04-22T05:23:03;122670.66;;;10.22;100.00
3590;BME280;1809;48.470;9.226;2023-04-22T05:25:29;119590.06;;;10.32;100.00
3590;BME280;1809;48.470;9.226;2023-04-22T05:27:54;117177.28;;;10.31;100.00
3590;BME280;1809;48.470;9.226;2023-04-22T05:30:19;116497.72;;;10.35;100.00
3590;BME280;1809;48.470;9.226;2023-04-22T05:32:44;116173.75;;;10.46;100.00
3590;BME280;1809;48.470;9.226;2023-04-22T05:35:10;116200.56;;;10.60;100.00
3590;BME280;1809;48.470;9.226;2023-04-22T05:37:35;114152.84;;;10.69;100.00
3590;BME280;1809;48.470;9.226;2023-04-22T05:40:01;112089.09;;;10.69;100.00
3590;BME280;1809;48.470;9.226;2023-04-22T05:42:26;109704.59;;;10.81;100.00
3590;BME280;1809;48.470;9.226;2023-04-22T05:44:51;105261.13;;;10.94;100.00
3590;BME280;1809;48.470;9.226;2023-04-22T05:47:17;100838.88;;;11.17;100.00
3590;BME280;1809;48.470;9.226;2023-04-22T05:49:42;94366.34;;;11.42;100.00
3590;BME280;1809;48.470;9.226;2023-04-22T05:52:07;81736.44;;;11.57;100.00
3590;BME280;1809;48.470;9.226;2023-04-22T05:54:32;73895.53;;;11.58;100.00
3590;BME280;1809;48.470;9.226;2023-04-22T05:56:58;72936.34;;;12.11;100.00
3590;BME280;1809;48.470;9.226;2023-04-22T05:59:23;64836.53;;;12.77;100.00
3590;BME280;1809;48.470;9.226;2023-04-22T06:01:49;27956.50;;;13.09;100.00
3590;BME280;1809;48.470;9.226;2023-04-22T06:04:14;-1550.81;;;13.27;100.00
3590;BME280;1809;48.470;9.226;2023-04-22T06:06:39;-16542.16;;;13.39;100.00
3590;BME280;1809;48.470;9.226;2023-04-22T06:09:05;-16543.97;;;13.46;100.00
3590;BME280;1809;48.470;9.226;2023-04-22T06:11:32;-16555.06;;;13.86;100.00
3590;BME280;1809;48.470;9.226;2023-04-22T06:13:57;-16573.97;;;14.54;100.00
3590;BME280;1809;48.470;9.226;2023-04-22T06:16:22;-16586.03;;;14.97;100.00
3590;BME280;1809;48.470;9.226;2023-04-22T06:18:48;-16598.22;;;15.41;100.00
3590;BME280;1809;48.470;9.226;2023-04-22T06:21:13;-16600.47;;;15.49;100.00
3590;BME280;1809;48.470;9.226;2023-04-22T06:23:38;-16625.00;;;16.38;100.00
3590;BME280;1809;48.470;9.226;2023-04-22T06:26:04;-16625.00;;;16.38;100.00
3590;BME280;1809;48.470;9.226;2023-04-22T06:28:29;-16625.84;;;16.41;100.00
3590;BME280;1809;48.470;9.226;2023-04-22T06:30:55;-16632.44;;;16.64;100.00
3590;BME280;1809;48.470;9.226;2023-04-22T06:33:20;-16633.69;;;16.69;100.00
3590;BME280;1809;48.470;9.226;2023-04-22T06:35:46;-16621.63;;;16.26;100.00
3590;BME280;1809;48.470;9.226;2023-04-22T06:38:11;-16629.75;;;16.55;100.00
3590;BME280;1809;48.470;9.226;2023-04-22T06:40:37;-16619.81;;;16.19;100.00
3590;BME280;1809;48.470;9.226;2023-04-22T06:43:02;-16619.41;;;16.18;100.00
3590;BME280;1809;48.470;9.226;2023-04-22T06:45:28;-16619.13;;;16.17;100.00
3590;BME280;1809;48.470;9.226;2023-04-22T06:47:54;-16616.31;;;16.06;100.00
3590;BME280;1809;48.470;9.226;2023-04-22T06:50:19;-16607.63;;;15.75;100.00
3590;BME280;1809;48.470;9.226;2023-04-22T06:52:45;-16614.91;;;16.01;100.00
3590;BME280;1809;48.470;9.226;2023-04-22T06:55:10;-16611.84;;;15.90;100.00
3590;BME280;1809;48.470;9.226;2023-04-22T06:57:35;-16615.75;;;16.04;100.00
3590;BME280;1809;48.470;9.226;2023-04-22T07:00:02;-16614.78;;;16.01;100.00
3590;BME280;1809;48.470;9.226;2023-04-22T07:02:28;-16606.22;;;15.70;100.00
3590;BME280;1809;48.470;9.226;2023-04-22T07:04:53;-16608.47;;;15.78;100.00
3590;BME280;1809;48.470;9.226;2023-04-22T07:07:19;-16611.97;;;15.91;100.00
3590;BME280;1809;48.470;9.226;2023-04-22T07:09:44;-16616.59;;;16.07;100.00
3590;BME280;1809;48.470;9.226;2023-04-22T07:12:09;-16618.13;;;16.13;100.00
3590;BME280;1809;48.470;9.226;2023-04-22T07:14:36;-16624.16;;;16.35;100.00
3590;BME280;1809;48.470;9.226;2023-04-22T07:17:01;-16621.22;;;16.24;100.00
3590;BME280;1809;48.470;9.226;2023-04-22T07:19:26;-16634.53;;;16.72;100.00
3590;BME280;1809;48.470;9.226;2023-04-22T07:21:53;-16646.84;;;17.16;100.00
3590;BME280;1809;48.470;9.226;2023-04-22T07:24:18;-16653.56;;;17.41;100.00
3590;BME280;1809;48.470;9.226;2023-04-22T07:26:44;-16648.81;;;17.24;100.00
3590;BME280;1809;48.470;9.226;2023-04-22T07:29:09;-16648.13;;;17.21;100.00
3590;BME280;1809;48.470;9.226;2023-04-22T07:31:37;-16637.59;;;16.83;100.00
3590;BME280;1809;48.470;9.226;2023-04-22T07:34:02;-16642.09;;;16.99;100.00
3590;BME280;1809;48.470;9.226;2023-04-22T07:36:27;-16655.66;;;17.48;100.00
3590;BME280;1809;48.470;9.226;2023-04-22T07:38:53;-16666.19;;;17.86;100.00
3590;BME280;1809;48.470;9.226;2023-04-22T07:41:18;-16668.41;;;17.94;100.00
3590;BME280;1809;48.470;9.226;2023-04-22T07:43:43;-16661.41;;;17.69;100.00
3590;BME280;1809;48.470;9.226;2023-04-22T07:46:09;-16666.44;;;17.87;100.00
3590;BME280;1809;48.470;9.226;2023-04-22T07:48:34;-16663.66;;;17.77;100.00
3590;BME280;1809;48.470;9.226;2023-04-22T07:51:00;-16667.84;;;17.92;100.00
3590;BME280;1809;48.470;9.226;2023-04-22T07:53:26;-16676.53;;;18.23;100.00
3590;BME280;1809;48.470;9.226;2023-04-22T07:55:51;-16673.88;;;18.14;100.00
3590;BME280;1809;48.470;9.226;2023-04-22T07:58:16;-16678.22;;;18.30;100.00
3590;BME280;1809;48.470;9.226;2023-04-22T08:00:42;-16677.38;;;18.26;100.00
3590;BME280;1809;48.470;9.226;2023-04-22T08:03:07;-16675.97;;;18.21;100.00
3590;BME280;1809;48.470;9.226;2023-04-22T08:05:32;-16672.06;;;18.07;100.00
3590;BME280;1809;48.470;9.226;2023-04-22T08:07:58;-16672.06;;;18.07;100.00
3590;BME280;1809;48.470;9.226;2023-04-22T08:10:23;-16675.00;;;18.18;100.00
3590;BME280;1809;48.470;9.226;2023-04-22T08:12:49;-16646.56;;;17.15;100.00
3590;BME280;1809;48.470;9.226;2023-04-22T08:15:14;-16652.44;;;17.37;100.00
3590;BME280;1809;48.470;9.226;2023-04-22T08:17:39;-16663.94;;;17.78;100.00
3590;BME280;1809;48.470;9.226;2023-04-22T08:20:05;-16653.00;;;17.39;100.00
3590;BME280;1809;48.470;9.226;2023-04-22T08:22:31;-16649.94;;;17.28;100.00
3590;BME280;1809;48.470;9.226;2023-04-22T08:24:58;-16645.59;;;17.12;100.00
3590;BME280;1809;48.470;9.226;2023-04-22T08:27:23;-16635.22;;;16.75;100.00
3590;BME280;1809;48.470;9.226;2023-04-22T08:29:48;-16638.44;;;16.86;100.00
3590;BME280;1809;48.470;9.226;2023-04-22T08:32:14;-16640.69;;;16.94;100.00
3590;BME280;1809;48.470;9.226;2023-04-22T08:34:39;-16648.25;;;17.22;100.00
3590;BME280;1809;48.470;9.226;2023-04-22T08:37:05;-16653.28;;;17.40;100.00
3590;BME280;1809;48.470;9.226;2023-04-22T08:39:30;-16656.66;;;17.52;100.00
3590;BME280;1809;48.470;9.226;2023-04-22T08:41:56;-16664.22;;;17.79;100.00
3590;BME280;1809;48.470;9.226;2023-04-22T08:44:22;-16663.09;;;17.75;100.00
3590;BME280;1809;48.470;9.226;2023-04-22T08:46:48;-16670.09;;;18.00;100.00
3590;BME280;1809;48.470;9.226;2023-04-22T08:49:15;-16675.69;;;18.20;100.00
3590;BME280;1809;48.470;9.226;2023-04-22T08:51:42;-16675.84;;;18.21;100.00
3590;BME280;1809;48.470;9.226;2023-04-22T08:54:07;-16684.66;;;18.53;100.00
3590;BME280;1809;48.470;9.226;2023-04-22T08:56:34;-16681.56;;;18.42;100.00
3590;BME280;1809;48.470;9.226;2023-04-22T08:59:02;-16686.31;;;18.59;100.00
3590;BME280;1809;48.470;9.226;2023-04-22T09:01:30;-16682.97;;;18.47;100.00
3590;BME280;1809;48.470;9.226;2023-04-22T09:03:58;-16694.88;;;18.90;100.00
3590;BME280;1809;48.470;9.226;2023-04-22T09:06:24;-16699.63;;;19.07;100.00
3590;BME280;1809;48.470;9.226;2023-04-22T09:08:49;-16710.41;;;19.46;100.00
3590;BME280;1809;48.470;9.226;2023-04-22T09:11:16;-16719.34;;;19.78;100.00
3590;BME280;1809;48.470;9.226;2023-04-22T09:13:42;-16725.22;;;19.99;100.00
3590;BME280;1809;48.470;9.226;2023-04-22T09:16:07;-16729.13;;;20.13;100.00
3590;BME280;1809;48.470;9.226;2023-04-22T09:18:40;-16726.19;;;20.03;100.00
3590;BME280;1809;48.470;9.226;2023-04-22T09:21:06;-16732.19;;;20.24;100.00
3590;BME280;1809;48.470;9.226;2023-04-22T09:23:31;-16731.34;;;20.21;100.00
3590;BME280;1809;48.470;9.226;2023-04-22T09:25:57;-16725.06;;;19.99;100.00
3590;BME280;1809;48.470;9.226;2023-04-22T09:28:23;-16722.69;;;19.90;100.00
3590;BME280;1809;48.470;9.226;2023-04-22T09:30:48;-16725.78;;;20.01;100.00
3590;BME280;1809;48.470;9.226;2023-04-22T09:33:14;-16723.25;;;19.92;100.00
3590;BME280;1809;48.470;9.226;2023-04-22T09:35:40;-16721.84;;;19.87;100.00
3590;BME280;1809;48.470;9.226;2023-04-22T09:38:08;-16728.69;;;20.12;100.00
3590;BME280;1809;48.470;9.226;2023-04-22T09:40:34;-16731.91;;;20.23;100.00
3590;BME280;1809;48.470;9.226;2023-04-22T09:43:02;-16733.88;;;20.30;100.00
3590;BME280;1809;48.470;9.226;2023-04-22T09:48:10;-16741.72;;;20.59;100.00
3590;BME280;1809;48.470;9.226;2023-04-22T09:50:42;-16749.25;;;20.86;100.00
3590;BME280;1809;48.470;9.226;2023-04-22T09:53:10;-16755.13;;;21.07;100.00
3590;BME280;1809;48.470;9.226;2023-04-22T09:55:38;-16759.88;;;21.24;100.00
3590;BME280;1809;48.470;9.226;2023-04-22T09:58:10;-16750.38;;;20.90;100.00
3590;BME280;1809;48.470;9.226;2023-04-22T10:00:47;-16753.72;;;21.02;100.00
3590;BME280;1809;48.470;9.226;2023-04-22T10:03:14;-16763.22;;;21.36;100.00
3590;BME280;1809;48.470;9.226;2023-04-22T10:05:40;-16766.84;;;21.50;100.00
3590;BME280;1809;48.470;9.226;2023-04-22T10:08:07;-16760.72;;;21.27;100.00
3590;BME280;1809;48.470;9.226;2023-04-22T10:10:33;-16762.94;;;21.35;100.00
3590;BME280;1809;48.470;9.226;2023-04-22T10:13:01;-16769.22;;;21.58;100.00
3590;BME280;1809;48.470;9.226;2023-04-22T10:15:49;-16778.03;;;21.90;100.00
3590;BME280;1809;48.470;9.226;2023-04-22T10:18:18;-16776.06;;;21.83;100.00
3590;BME280;1809;48.470;9.226;2023-04-22T10:20:46;-16776.06;;;21.83;100.00
3590;BME280;1809;48.470;9.226;2023-04-22T10:23:17;-16780.28;;;21.98;100.00
3590;BME280;1809;48.470;9.226;2023-04-22T10:25:47;-16787.81;;;22.25;100.00
3590;BME280;1809;48.470;9.226;2023-04-22T10:28:16;-16779.28;;;21.94;100.00
3590;BME280;1809;48.470;9.226;2023-04-22T10:30:42;-16782.09;;;22.05;100.00
3590;BME280;1809;48.470;9.226;2023-04-22T10:36:08;-16792.56;;;22.42;100.00
3590;BME280;1809;48.470;9.226;2023-04-22T10:38:36;-16794.22;;;22.48;100.00
3590;BME280;1809;48.470;9.226;2023-04-22T10:41:01;-16794.22;;;22.48;100.00
3590;BME280;1809;48.470;9.226;2023-04-22T10:43:46;-16802.34;;;22.78;100.00
3590;BME280;1809;48.470;9.226;2023-04-22T10:49:34;-16820.47;;;23.43;96.52
3590;BME280;1809;48.470;9.226;2023-04-22T10:52:00;-16826.88;;;23.67;90.18
3590;BME280;1809;48.470;9.226;2023-04-22T10:59:26;-16832.63;;;23.87;78.04
3590;BME280;1809;48.470;9.226;2023-04-22T11:01:51;-16826.19;;;23.64;74.14
3590;BME280;1809;48.470;9.226;2023-04-22T11:04:21;-16833.59;;;23.91;77.95
3590;BME280;1809;48.470;9.226;2023-04-22T11:09:59;-16849.06;;;24.47;59.30
3590;BME280;1809;48.470;9.226;2023-04-22T11:15:14;-16843.63;;;24.27;62.28
3590;BME280;1809;48.470;9.226;2023-04-22T11:17:49;-16844.88;;;24.32;65.45
3590;BME280;1809;48.470;9.226;2023-04-22T11:20:14;-16841.53;;;24.20;70.06
3590;BME280;1809;48.470;9.226;2023-04-22T11:22:44;-16853.81;;;24.64;66.60
3590;BME280;1809;48.470;9.226;2023-04-22T11:25:09;-16856.19;;;24.73;63.70
3590;BME280;1809;48.470;9.226;2023-04-22T11:27:36;-16848.09;;;24.43;70.73
3590;BME280;1809;48.470;9.226;2023-04-22T11:32:32;-16842.78;;;24.24;66.58
3590;BME280;1809;48.470;9.226;2023-04-22T11:35:02;-16836.94;;;24.03;69.12
3590;BME280;1809;48.470;9.226;2023-04-22T11:37:28;-16832.88;;;23.88;67.91
3590;BME280;1809;48.470;9.226;2023-04-22T11:39:58;-16833.88;;;23.92;67.59
3590;BME280;1809;48.470;9.226;2023-04-22T11:42:24;-16848.09;;;24.43;64.27
3590;BME280;1809;48.470;9.226;2023-04-22T11:44:50;-16855.06;;;24.69;52.90
3590;BME280;1809;48.470;9.226;2023-04-22T11:47:16;-16844.19;;;24.29;47.41
3590;BME280;1809;48.470;9.226;2023-04-22T11:49:53;-16843.91;;;24.28;47.17
3590;BME280;1809;48.470;9.226;2023-04-22T11:52:18;-16848.09;;;24.43;47.64
3590;BME280;1809;48.470;9.226;2023-04-22T11:54:44;-16853.94;;;24.65;50.05
3590;BME280;1809;48.470;9.226;2023-04-22T11:57:10;-16846.28;;;24.37;47.35
3590;BME280;1809;48.470;9.226;2023-04-22T11:59:42;-16847.69;;;24.42;47.55
3590;BME280;1809;48.470;9.226;2023-04-22T12:02:08;-16848.66;;;24.45;47.14
3590;BME280;1809;48.470;9.226;2023-04-22T12:04:40;-16854.50;;;24.67;46.46
3590;BME280;1809;48.470;9.226;2023-04-22T12:07:07;-16849.34;;;24.48;44.17
3590;BME280;1809;48.470;9.226;2023-04-22T12:09:33;-16845.59;;;24.34;44.75
3590;BME280;1809;48.470;9.226;2023-04-22T12:11:58;-16845.59;;;24.34;46.00
3590;BME280;1809;48.470;9.226;2023-04-22T12:14:33;-16864.97;;;25.04;44.17
3590;BME280;1809;48.470;9.226;2023-04-22T12:17:02;-16871.09;;;25.27;43.36
3590;BME280;1809;48.470;9.226;2023-04-22T12:19:29;-16870.25;;;25.24;48.17
3590;BME280;1809;48.470;9.226;2023-04-22T12:21:55;-16855.91;;;24.72;50.72
3590;BME280;1809;48.470;9.226;2023-04-22T12:24:26;-16856.59;;;24.74;52.08
3590;BME280;1809;48.470;9.226;2023-04-22T12:26:52;-16856.88;;;24.75;50.99
3590;BME280;1809;48.470;9.226;2023-04-22T12:29:26;-16849.50;;;24.48;48.94
3590;BME280;1809;48.470;9.226;2023-04-22T12:31:52;-16837.22;;;24.04;51.64
3590;BME280;1809;48.470;9.226;2023-04-22T12:34:17;-16841.41;;;24.19;53.20
3590;BME280;1809;48.470;9.226;2023-04-22T12:36:42;-16847.81;;;24.42;50.67
3590;BME280;1809;48.470;9.226;2023-04-22T12:39:08;-16855.47;;;24.70;50.70
3590;BME280;1809;48.470;9.226;2023-04-22T12:41:34;-16855.91;;;24.72;51.22
3590;BME280;1809;48.470;9.226;2023-04-22T12:44:00;-16853.53;;;24.63;51.90
3590;BME280;1809;48.470;9.226;2023-04-22T12:46:25;-16863.28;;;24.98;57.25
3590;BME280;1809;48.470;9.226;2023-04-22T12:48:51;-16849.22;;;24.47;53.88
3590;BME280;1809;48.470;9.226;2023-04-22T12:51:16;-16853.66;;;24.63;51.32
3590;BME280;1809;48.470;9.226;2023-04-22T12:53:41;-16861.19;;;24.91;50.42
3590;BME280;1809;48.470;9.226;2023-04-22T12:56:07;-16862.59;;;24.96;48.05
3590;BME280;1809;48.470;9.226;2023-04-22T12:58:32;-16850.03;;;24.50;48.64
3590;BME280;1809;48.470;9.226;2023-04-22T13:00:57;-16849.91;;;24.50;48.68
3590;BME280;1809;48.470;9.226;2023-04-22T13:03:23;-16851.72;;;24.56;48.64
3590;BME280;1809;48.470;9.226;2023-04-22T13:05:48;-16857.84;;;24.79;45.38
3590;BME280;1809;48.470;9.226;2023-04-22T13:08:13;-16857.72;;;24.78;49.29
3590;BME280;1809;48.470;9.226;2023-04-22T13:10:39;-16854.78;;;24.68;48.81
3590;BME280;1809;48.470;9.226;2023-04-22T13:13:04;-16846.84;;;24.39;51.74
3590;BME280;1809;48.470;9.226;2023-04-22T13:15:30;-16848.66;;;24.45;54.10
3590;BME280;1809;48.470;9.226;2023-04-22T13:17:55;-16851.31;;;24.55;54.63
3590;BME280;1809;48.470;9.226;2023-04-22T13:20:21;-16843.34;;;24.26;52.69
3590;BME280;1809;48.470;9.226;2023-04-22T13:22:46;-16837.34;;;24.04;56.35